createdAt,value
2022-11-29T00:01:28.580Z,52.17
2022-11-29T00:03:55.730Z,57.92
2022-11-29T00:06:29.057Z,68.22
2022-11-29T00:08:57.203Z,54.53
2022-11-29T00:11:45.089Z,42.10
2022-11-29T00:14:14.476Z,39.72
2022-11-29T00:16:41.399Z,34.63
2022-11-29T00:19:09.075Z,35.05
2022-11-29T00:21:35.580Z,33.55
2022-11-29T00:24:02.093Z,33.70
2022-11-29T00:26:28.561Z,31.60
2022-11-29T00:28:55.093Z,32.58
2022-11-29T00:31:24.393Z,32.03
2022-11-29T00:33:51.671Z,33.03
2022-11-29T00:36:18.881Z,33.13
2022-11-29T00:38:46.047Z,27.95
2022-11-29T00:41:12.553Z,35.92
2022-11-29T00:43:39.394Z,34.33
2022-11-29T00:46:07.978Z,34.65
2022-11-29T00:48:34.802Z,36.45
2022-11-29T00:51:01.739Z,35.47
2022-11-29T00:53:28.535Z,35.30
2022-11-29T00:55:54.984Z,36.05
2022-11-29T00:58:21.627Z,35.00
2022-11-29T01:00:48.190Z,36.55
2022-11-29T01:03:16.458Z,37.90
2022-11-29T01:05:43.323Z,33.13
2022-11-29T01:08:11.271Z,34.13
2022-11-29T01:10:37.836Z,34.50
2022-11-29T01:13:04.572Z,36.10
2022-11-29T01:15:32.503Z,42.08
2022-11-29T01:17:59.199Z,33.80
2022-11-29T01:20:26.316Z,35.65
2022-11-29T01:22:52.808Z,31.58
2022-11-29T01:25:19.469Z,33.33
2022-11-29T01:27:46.666Z,32.97
2022-11-29T01:30:13.592Z,35.50
2022-11-29T01:32:40.023Z,32.60
2022-11-29T01:35:07.295Z,34.90
2022-11-29T01:37:33.877Z,46.60
2022-11-29T01:40:00.304Z,40.20
2022-11-29T01:42:26.794Z,39.50
2022-11-29T01:45:23.447Z,37.58
2022-11-29T01:47:52.937Z,37.70
2022-11-29T01:50:20.142Z,36.65
2022-11-29T01:52:47.836Z,41.42
2022-11-29T01:55:14.545Z,33.95
2022-11-29T01:57:42.722Z,37.45
2022-11-29T02:00:14.380Z,36.03
2022-11-29T02:02:44.909Z,48.50
2022-11-29T02:05:14.744Z,40.08
2022-11-29T02:07:44.707Z,33.30
2022-11-29T02:10:11.998Z,36.45
2022-11-29T02:13:01.607Z,36.05
2022-11-29T02:15:34.142Z,43.45
2022-11-29T02:18:15.451Z,39.28
2022-11-29T02:21:03.920Z,35.80
2022-11-29T02:24:06.044Z,41.55
2022-11-29T02:27:06.275Z,34.90
2022-11-29T02:29:57.555Z,36.05
2022-11-29T02:32:41.362Z,39.20
2022-11-29T02:35:10.505Z,39.05
2022-11-29T02:37:55.737Z,36.05
2022-11-29T02:40:44.602Z,35.80
2022-11-29T02:43:20.783Z,33.90
2022-11-29T02:45:47.164Z,38.35
2022-11-29T02:48:32.626Z,37.97
2022-11-29T02:51:13.867Z,38.33
2022-11-29T02:53:40.293Z,36.78
2022-11-29T02:56:25.300Z,33.83
2022-11-29T02:59:04.193Z,48.47
2022-11-29T03:01:39.683Z,36.35
2022-11-29T03:04:21.525Z,36.85
2022-11-29T03:07:20.012Z,36.05
2022-11-29T03:09:49.369Z,37.05
2022-11-29T03:12:27.051Z,40.03
2022-11-29T03:14:59.979Z,35.80
2022-11-29T03:17:40.625Z,36.53
2022-11-29T03:20:19.944Z,36.70
2022-11-29T03:23:09.846Z,37.30
2022-11-29T03:25:45.876Z,33.08
2022-11-29T03:28:20.975Z,39.05
2022-11-29T03:30:55.000Z,34.38
2022-11-29T03:33:48.735Z,37.67
2022-11-29T03:36:39.987Z,38.85
2022-11-29T03:39:17.298Z,37.50
2022-11-29T03:41:51.959Z,39.33
2022-11-29T03:44:22.243Z,37.65
2022-11-29T03:47:01.582Z,41.38
2022-11-29T03:49:35.945Z,36.78
2022-11-29T03:52:46.804Z,36.45
2022-11-29T03:55:30.257Z,38.40
2022-11-29T03:58:05.685Z,33.65
2022-11-29T04:00:49.509Z,35.20
2022-11-29T04:03:56.096Z,39.75
2022-11-29T04:06:40.809Z,42.70
2022-11-29T04:09:56.278Z,37.50
2022-11-29T04:12:34.388Z,39.00
2022-11-29T04:15:37.070Z,37.10
2022-11-29T04:18:21.309Z,41.30
2022-11-29T04:20:59.442Z,37.13
2022-11-29T04:23:45.579Z,39.28
2022-11-29T04:26:35.075Z,35.85
2022-11-29T04:29:20.543Z,36.25
2022-11-29T04:32:05.658Z,41.97
2022-11-29T04:34:56.995Z,35.55
2022-11-29T04:37:23.379Z,34.17
2022-11-29T04:40:28.167Z,37.13
2022-11-29T04:43:08.705Z,36.08
2022-11-29T04:45:44.207Z,35.67
2022-11-29T04:49:04.783Z,37.67
2022-11-29T04:51:56.575Z,39.08
2022-11-29T04:57:39.504Z,44.00
2022-11-29T05:00:12.840Z,38.38
2022-11-29T05:02:56.211Z,40.65
2022-11-29T05:05:51.883Z,40.15
2022-11-29T05:08:39.622Z,40.35
2022-11-29T05:11:34.155Z,36.85
2022-11-29T05:14:25.236Z,38.63
2022-11-29T05:17:14.827Z,36.35
2022-11-29T05:20:09.367Z,39.90
2022-11-29T05:22:47.824Z,35.33
2022-11-29T05:25:51.413Z,43.17
2022-11-29T05:28:29.005Z,38.80
2022-11-29T05:31:37.849Z,39.50
2022-11-29T05:34:16.490Z,50.10
2022-11-29T05:36:46.077Z,52.65
2022-11-29T05:39:30.465Z,41.70
2022-11-29T05:42:18.030Z,40.53
2022-11-29T05:44:50.942Z,44.38
2022-11-29T05:47:37.063Z,44.17
2022-11-29T05:50:12.541Z,46.65
2022-11-29T05:53:00.038Z,43.97
2022-11-29T05:55:41.345Z,41.83
2022-11-29T05:58:30.692Z,44.50
2022-11-29T06:00:57.313Z,45.45
2022-11-29T06:03:32.560Z,41.50
2022-11-29T06:06:08.062Z,39.92
2022-11-29T06:08:41.851Z,39.15
2022-11-29T06:11:24.484Z,36.92
2022-11-29T06:14:13.586Z,36.95
2022-11-29T06:16:57.973Z,35.65
2022-11-29T06:19:53.052Z,39.17
2022-11-29T06:22:45.996Z,34.97
2022-11-29T06:25:37.584Z,36.30
2022-11-29T06:28:25.342Z,40.92
2022-11-29T06:31:00.780Z,37.70
2022-11-29T06:33:52.733Z,47.53
2022-11-29T06:36:25.345Z,46.60
2022-11-29T06:38:51.973Z,48.03
2022-11-29T06:41:21.852Z,39.40
2022-11-29T06:43:49.015Z,40.33
2022-11-29T06:46:24.687Z,41.35
2022-11-29T06:49:14.041Z,41.40
2022-11-29T06:51:51.852Z,43.40
2022-11-29T06:54:50.369Z,48.22
2022-11-29T06:57:24.649Z,45.05
2022-11-29T06:59:54.134Z,47.42
2022-11-29T07:02:50.291Z,39.42
2022-11-29T07:05:30.255Z,43.88
2022-11-29T07:08:00.626Z,40.35
2022-11-29T07:10:29.180Z,41.00
2022-11-29T07:12:55.860Z,38.65
2022-11-29T07:15:22.781Z,35.28
2022-11-29T07:18:05.264Z,33.45
2022-11-29T07:20:59.507Z,41.85
2022-11-29T07:23:43.135Z,43.30
2022-11-29T07:26:58.036Z,37.63
2022-11-29T07:29:47.298Z,39.97
2022-11-29T07:32:27.929Z,39.05
2022-11-29T07:35:08.275Z,32.63
2022-11-29T07:38:09.885Z,39.33
2022-11-29T07:40:42.310Z,39.00
2022-11-29T07:43:23.700Z,40.88
2022-11-29T07:45:51.758Z,38.55
2022-11-29T07:48:18.295Z,40.55
2022-11-29T07:50:45.414Z,37.22
2022-11-29T07:53:17.039Z,36.08
2022-11-29T07:55:44.358Z,42.35
2022-11-29T07:58:15.827Z,34.90
2022-11-29T08:03:10.742Z,35.58
2022-11-29T08:05:38.618Z,34.53
2022-11-29T08:08:05.925Z,43.13
2022-11-29T08:10:32.879Z,35.35
2022-11-29T08:12:59.556Z,39.72
2022-11-29T08:15:27.406Z,38.78
2022-11-29T08:17:53.861Z,44.22
2022-11-29T08:20:20.376Z,43.30
2022-11-29T08:22:57.747Z,42.42
2022-11-29T08:25:25.504Z,42.80
2022-11-29T08:27:52.169Z,42.88
2022-11-29T08:30:22.058Z,39.53
2022-11-29T08:32:52.678Z,37.70
2022-11-29T08:35:21.217Z,38.90
2022-11-29T08:37:47.972Z,40.53
2022-11-29T08:40:15.432Z,42.53
2022-11-29T08:42:42.028Z,40.25
2022-11-29T08:45:10.097Z,36.05
2022-11-29T08:47:37.194Z,36.75
2022-11-29T08:50:15.027Z,36.90
2022-11-29T08:53:04.130Z,40.53
2022-11-29T08:55:46.585Z,36.30
2022-11-29T08:58:14.786Z,36.85
2022-11-29T09:00:43.291Z,37.92
2022-11-29T09:03:28.392Z,36.15
2022-11-29T09:05:55.279Z,39.03
2022-11-29T09:08:21.735Z,37.13
2022-11-29T09:10:49.260Z,36.58
2022-11-29T09:13:15.698Z,33.20
2022-11-29T09:15:43.590Z,37.08
2022-11-29T09:18:10.888Z,36.78
2022-11-29T09:20:37.345Z,56.42
2022-11-29T09:23:03.884Z,46.30
2022-11-29T09:25:30.381Z,44.97
2022-11-29T09:28:01.194Z,38.03
2022-11-29T09:30:30.532Z,36.70
2022-11-29T09:32:59.947Z,38.05
2022-11-29T09:35:26.366Z,29.88
2022-11-29T09:37:52.764Z,32.85
2022-11-29T09:40:22.987Z,33.28
2022-11-29T09:43:06.314Z,33.03
2022-11-29T09:45:38.813Z,34.33
2022-11-29T09:48:20.442Z,28.58
2022-11-29T09:53:37.867Z,32.45
2022-11-29T09:56:16.626Z,31.52
2022-11-29T09:59:22.779Z,31.27
2022-11-29T10:02:03.934Z,32.13
2022-11-29T10:04:36.241Z,34.38
2022-11-29T10:07:44.348Z,33.30
2022-11-29T10:10:20.356Z,42.88
2022-11-29T10:12:52.364Z,36.53
2022-11-29T10:15:23.853Z,88.05
2022-11-29T10:20:28.662Z,49.40
2022-11-29T10:23:06.736Z,43.80
2022-11-29T10:25:44.078Z,63.50
2022-11-29T10:28:15.260Z,51.38
2022-11-29T10:30:43.366Z,50.45
2022-11-29T10:33:21.114Z,86.40
2022-11-29T10:35:50.844Z,65.85
2022-11-29T10:38:32.835Z,38.65
2022-11-29T10:41:07.533Z,28.85
2022-11-29T10:43:34.251Z,31.60
2022-11-29T10:46:02.436Z,47.03
2022-11-29T10:48:32.966Z,84.07
2022-11-29T10:51:00.899Z,42.55
2022-11-29T10:53:32.949Z,78.53
2022-11-29T10:56:07.279Z,39.63
2022-11-29T10:58:34.494Z,31.73
2022-11-29T11:01:09.374Z,25.73
2022-11-29T11:03:40.869Z,25.48
2022-11-29T11:09:11.160Z,20.70
2022-11-29T11:11:38.730Z,25.35
2022-11-29T11:14:22.344Z,23.08
2022-11-29T11:16:49.213Z,24.95
2022-11-29T11:19:24.541Z,26.33
2022-11-29T11:21:51.642Z,19.67
2022-11-29T11:24:24.795Z,22.88
2022-11-29T11:26:51.279Z,19.60
2022-11-29T11:29:21.514Z,21.42
2022-11-29T11:31:57.319Z,25.60
2022-11-29T11:34:26.099Z,26.58
2022-11-29T11:36:54.372Z,27.83
2022-11-29T11:39:23.316Z,24.40
2022-11-29T11:42:10.190Z,20.85
2022-11-29T11:44:48.311Z,19.45
2022-11-29T11:47:21.691Z,22.00
2022-11-29T11:49:50.353Z,24.38
2022-11-29T11:52:43.748Z,71.30
2022-11-29T11:55:21.523Z,27.80
2022-11-29T11:58:12.876Z,20.25
2022-11-29T12:01:02.899Z,19.08
2022-11-29T12:03:49.846Z,19.35
2022-11-29T12:06:46.999Z,16.17
2022-11-29T12:09:34.389Z,18.67
2022-11-29T12:12:15.429Z,18.77
2022-11-29T12:14:59.062Z,21.67
2022-11-29T12:17:28.440Z,23.55
2022-11-29T12:20:32.360Z,19.73
2022-11-29T12:23:18.306Z,27.70
2022-11-29T12:26:05.404Z,21.85
2022-11-29T12:28:34.245Z,25.35
2022-11-29T12:31:27.903Z,22.48
2022-11-29T12:33:54.294Z,19.13
2022-11-29T12:36:58.012Z,21.00
2022-11-29T12:39:39.555Z,26.05
2022-11-29T12:44:53.148Z,29.42
2022-11-29T12:47:36.816Z,57.85
2022-11-29T12:50:37.546Z,22.10
2022-11-29T12:53:34.988Z,21.40
2022-11-29T12:56:13.676Z,18.70
2022-11-29T12:58:56.246Z,17.73
2022-11-29T13:01:47.269Z,16.80
2022-11-29T13:04:39.500Z,14.70
2022-11-29T13:07:20.581Z,16.40
2022-11-29T13:09:50.058Z,18.42
2022-11-29T13:12:35.589Z,18.60
2022-11-29T13:15:11.132Z,19.92
2022-11-29T13:17:57.283Z,18.10
2022-11-29T13:20:45.331Z,17.65
2022-11-29T13:23:20.803Z,22.08
2022-11-29T13:25:51.237Z,21.90
2022-11-29T13:28:27.522Z,21.58
2022-11-29T13:31:00.239Z,21.35
2022-11-29T13:33:39.784Z,18.55
2022-11-29T13:36:33.723Z,20.30
2022-11-29T13:39:27.273Z,19.10
2022-11-29T13:42:09.368Z,17.70
2022-11-29T13:44:46.573Z,18.73
2022-11-29T13:47:16.088Z,18.73
2022-11-29T13:50:02.366Z,20.10
2022-11-29T13:52:44.185Z,17.10
2022-11-29T13:55:11.322Z,26.63
2022-11-29T13:58:15.321Z,23.40
2022-11-29T14:00:44.273Z,18.73
2022-11-29T14:03:38.687Z,18.60
2022-11-29T14:06:10.421Z,17.90
2022-11-29T14:11:52.544Z,21.80
2022-11-29T14:14:27.786Z,20.08
2022-11-29T14:17:03.517Z,19.55
2022-11-29T14:19:37.067Z,23.67
2022-11-29T14:22:06.024Z,24.63
2022-11-29T14:24:32.437Z,21.33
2022-11-29T14:27:12.537Z,21.45
2022-11-29T14:29:52.642Z,20.20
2022-11-29T14:32:46.525Z,19.45
2022-11-29T14:35:23.209Z,21.15
2022-11-29T14:38:11.233Z,19.17
2022-11-29T14:40:40.625Z,21.85
2022-11-29T14:43:28.291Z,22.15
2022-11-29T14:46:29.060Z,24.95
2022-11-29T14:48:55.922Z,18.25
2022-11-29T14:51:25.793Z,25.08
2022-11-29T14:54:03.258Z,77.85
2022-11-29T14:56:30.122Z,57.65
2022-11-29T14:59:34.207Z,30.95
2022-11-29T15:02:15.796Z,22.35
2022-11-29T15:04:43.156Z,25.85
2022-11-29T15:07:17.386Z,20.92
2022-11-29T15:09:45.844Z,20.50
2022-11-29T15:12:21.655Z,19.48
2022-11-29T15:15:01.809Z,18.25
2022-11-29T15:17:54.732Z,21.27
2022-11-29T15:20:43.092Z,21.73
2022-11-29T15:23:19.305Z,28.02
2022-11-29T15:25:48.393Z,23.05
2022-11-29T15:28:27.106Z,22.92
2022-11-29T15:31:05.975Z,20.20
2022-11-29T15:33:34.458Z,21.73
2022-11-29T15:36:09.292Z,21.98
2022-11-29T15:38:45.189Z,19.45
2022-11-29T15:41:32.115Z,22.23
2022-11-29T15:44:02.498Z,24.65
2022-11-29T15:46:31.229Z,20.08
2022-11-29T15:49:25.325Z,22.77
2022-11-29T15:51:57.989Z,21.83
2022-11-29T15:54:37.477Z,21.58
2022-11-29T15:57:13.518Z,20.83
2022-11-29T15:59:42.704Z,22.58
2022-11-29T16:02:22.481Z,23.80
2022-11-29T16:04:53.467Z,40.17
2022-11-29T16:07:23.377Z,40.95
2022-11-29T16:09:54.916Z,33.58
2022-11-29T16:14:59.513Z,31.10
2022-11-29T16:17:35.664Z,23.77
2022-11-29T16:20:13.948Z,36.53
2022-11-29T16:22:40.470Z,25.58
2022-11-29T16:25:16.756Z,27.75
2022-11-29T16:27:43.710Z,24.55
2022-11-29T16:30:21.895Z,27.45
2022-11-29T16:33:13.679Z,25.45
2022-11-29T16:38:21.456Z,21.55
2022-11-29T16:41:03.347Z,24.73
2022-11-29T16:43:48.537Z,25.00
2022-11-29T16:46:20.802Z,27.13
2022-11-29T16:48:51.680Z,27.90
2022-11-29T16:51:49.948Z,26.38
2022-11-29T16:54:21.281Z,27.77
2022-11-29T16:56:48.482Z,27.77
2022-11-29T16:59:26.019Z,26.02
2022-11-29T17:01:55.103Z,25.55
2022-11-29T17:04:24.445Z,31.00
2022-11-29T17:06:53.245Z,29.45
2022-11-29T17:09:24.225Z,25.98
2022-11-29T17:11:50.655Z,26.77
2022-11-29T17:14:17.095Z,23.67
2022-11-29T17:16:43.689Z,32.88
2022-11-29T17:19:12.446Z,34.47
2022-11-29T17:21:39.004Z,29.10
2022-11-29T17:24:05.882Z,27.27
2022-11-29T17:26:32.320Z,26.10
2022-11-29T17:28:58.752Z,24.67
2022-11-29T17:31:25.319Z,24.30
2022-11-29T17:33:52.184Z,24.52
2022-11-29T17:36:20.779Z,30.85
2022-11-29T17:38:47.931Z,27.20
2022-11-29T17:41:17.014Z,26.52
2022-11-29T17:43:43.601Z,25.30
2022-11-29T17:46:16.210Z,26.23
2022-11-29T17:48:43.448Z,31.33
2022-11-29T17:51:35.975Z,31.00
2022-11-29T17:53:56.448Z,26.23
2022-11-29T17:56:24.926Z,24.85
2022-11-29T17:58:54.007Z,25.58
2022-11-29T18:01:23.003Z,20.98
2022-11-29T18:03:52.464Z,25.60
2022-11-29T18:06:21.465Z,24.60
2022-11-29T18:08:56.432Z,21.02
2022-11-29T18:11:27.697Z,27.75
2022-11-29T18:13:55.639Z,30.88
2022-11-29T18:16:25.365Z,40.40
2022-11-29T18:19:00.711Z,38.33
2022-11-29T18:21:28.024Z,39.20
2022-11-29T18:23:54.759Z,28.27
2022-11-29T18:26:24.164Z,24.05
2022-11-29T18:28:51.483Z,24.40
2022-11-29T18:31:21.680Z,27.55
2022-11-29T18:33:50.613Z,24.98
2022-11-29T18:36:19.848Z,23.83
2022-11-29T18:38:46.832Z,23.55
2022-11-29T18:41:14.551Z,29.52
2022-11-29T18:43:41.569Z,35.97
2022-11-29T18:46:10.411Z,46.05
2022-11-29T18:48:38.019Z,37.97
2022-11-29T18:51:06.698Z,38.53
2022-11-29T18:53:37.653Z,37.70
2022-11-29T18:56:07.199Z,46.72
2022-11-29T18:58:33.945Z,33.72
2022-11-29T19:01:11.131Z,41.95
2022-11-29T19:03:40.391Z,40.65
2022-11-29T19:06:10.329Z,38.50
2022-11-29T19:08:37.264Z,37.70
2022-11-29T19:11:13.140Z,37.25
2022-11-29T19:13:40.615Z,33.22
2022-11-29T19:16:13.058Z,39.30
2022-11-29T19:18:40.030Z,37.05
2022-11-29T19:21:17.554Z,39.80
2022-11-29T19:23:45.305Z,35.92
2022-11-29T19:26:14.059Z,36.22
2022-11-29T19:28:45.560Z,39.90
2022-11-29T19:33:42.172Z,37.67
2022-11-29T19:36:15.160Z,33.55
2022-11-29T19:38:43.326Z,35.15
2022-11-29T19:41:17.669Z,32.28
2022-11-29T19:43:44.771Z,32.15
2022-11-29T19:46:23.450Z,26.83
2022-11-29T19:48:52.842Z,30.25
2022-11-29T19:51:19.565Z,26.17
2022-11-29T19:53:47.350Z,29.65
2022-11-29T19:56:15.876Z,27.60
2022-11-29T19:58:43.862Z,31.73
2022-11-29T20:01:25.123Z,29.17
2022-11-29T20:03:52.424Z,28.27
2022-11-29T20:06:18.888Z,28.20
2022-11-29T20:08:45.894Z,30.40
2022-11-29T20:11:13.602Z,26.98
2022-11-29T20:13:41.847Z,30.48
2022-11-29T20:16:11.986Z,34.05
2022-11-29T20:18:42.603Z,31.67
2022-11-29T20:21:14.945Z,30.38
2022-11-29T20:23:42.108Z,35.90
2022-11-29T20:26:17.416Z,29.45
2022-11-29T20:28:44.915Z,36.35
2022-11-29T20:31:17.348Z,34.35
2022-11-29T20:33:46.530Z,30.30
2022-11-29T20:36:44.036Z,28.00
2022-11-29T20:39:37.782Z,41.33
2022-11-29T20:42:29.111Z,38.25
2022-11-29T20:45:00.437Z,44.10
2022-11-29T20:47:31.760Z,38.60
2022-11-29T20:49:58.310Z,38.17
2022-11-29T20:52:41.981Z,36.75
2022-11-29T20:55:08.952Z,41.15
2022-11-29T20:57:38.182Z,34.17
2022-11-29T21:00:11.447Z,31.35
2022-11-29T21:02:38.845Z,32.45
2022-11-29T21:05:05.977Z,40.20
2022-11-29T21:07:32.592Z,37.38
2022-11-29T21:10:01.318Z,40.05
2022-11-29T21:12:29.802Z,35.35
2022-11-29T21:14:56.903Z,33.40
2022-11-29T21:17:26.468Z,32.00
2022-11-29T21:19:56.831Z,27.30
2022-11-29T21:22:54.208Z,26.20
2022-11-29T21:25:53.126Z,28.23
2022-11-29T21:28:24.538Z,33.03
2022-11-29T21:30:51.272Z,30.80
2022-11-29T21:33:17.961Z,25.25
2022-11-29T21:35:44.591Z,26.55
2022-11-29T21:38:16.116Z,30.00
2022-11-29T21:43:08.881Z,27.35
2022-11-29T21:45:35.323Z,30.05
2022-11-29T21:48:01.788Z,25.52
2022-11-29T21:50:29.199Z,26.27
2022-11-29T21:52:55.664Z,23.70
2022-11-29T21:55:22.085Z,23.60
2022-11-29T21:57:48.490Z,21.33
2022-11-29T22:00:15.374Z,25.55
2022-11-29T22:02:41.913Z,24.02
2022-11-29T22:05:09.530Z,22.52
2022-11-29T22:07:36.012Z,25.25
2022-11-29T22:10:09.954Z,77.45
2022-11-29T22:12:38.218Z,106.72
2022-11-29T22:15:05.214Z,92.57
2022-11-29T22:17:31.624Z,46.10
2022-11-29T22:19:58.209Z,110.60
2022-11-29T22:22:27.914Z,210.70
2022-11-29T22:24:54.731Z,224.00
2022-11-29T22:27:21.195Z,119.88
2022-11-29T22:29:47.600Z,38.53
2022-11-29T22:32:14.380Z,30.90
2022-11-29T22:34:40.844Z,26.33
2022-11-29T22:37:07.376Z,39.15
2022-11-29T22:39:33.779Z,33.22
2022-11-29T22:42:00.225Z,66.65
2022-11-29T22:44:26.722Z,82.18
2022-11-29T22:46:53.205Z,82.38
2022-11-29T22:49:19.792Z,61.45
2022-11-29T22:51:46.333Z,38.17
2022-11-29T22:54:15.445Z,38.45
2022-11-29T22:56:43.587Z,36.25
2022-11-29T22:59:10.051Z,31.58
2022-11-29T23:01:39.096Z,36.80
2022-11-29T23:04:08.029Z,72.68
2022-11-29T23:06:37.293Z,82.43
2022-11-29T23:09:12.061Z,82.30
2022-11-29T23:11:39.009Z,51.05
2022-11-29T23:14:05.516Z,38.15
2022-11-29T23:16:32.900Z,30.92
2022-11-29T23:19:00.532Z,25.33
2022-11-29T23:21:28.407Z,31.50
2022-11-29T23:23:56.755Z,24.45
2022-11-29T23:26:23.386Z,27.13
2022-11-29T23:28:50.648Z,26.80
2022-11-29T23:31:17.777Z,26.40
2022-11-29T23:33:44.331Z,25.90
2022-11-29T23:36:12.641Z,27.40
2022-11-29T23:38:39.658Z,49.45
2022-11-29T23:41:07.267Z,47.55
2022-11-29T23:43:35.310Z,52.30
2022-11-29T23:46:22.833Z,46.10
2022-11-29T23:48:49.457Z,45.08
2022-11-29T23:51:17.169Z,41.53
2022-11-29T23:53:43.795Z,35.97
2022-11-29T23:56:16.105Z,32.58
2022-11-29T23:58:43.697Z,29.83
